sensor_id;sensor_type;location;lat;lon;timestamp;P1;durP1;ratioP1;P2;durP2;ratioP2
14698;SDS011;7439;50.804;4.602;2023-07-20T00:02:02;6.10;;;4.67;;
14698;SDS011;7439;50.804;4.602;2023-07-20T00:04:32;4.97;;;3.90;;
14698;SDS011;7439;50.804;4.602;2023-07-20T00:06:59;10.00;;;4.07;;
14698;SDS011;7439;50.804;4.602;2023-07-20T00:09:28;6.40;;;4.03;;
14698;SDS011;7439;50.804;4.602;2023-07-20T00:11:55;4.73;;;4.00;;
14698;SDS011;7439;50.804;4.602;2023-07-20T00:14:25;5.30;;;3.90;;
14698;SDS011;7439;50.804;4.602;2023-07-20T00:16:52;4.30;;;3.90;;
14698;SDS011;7439;50.804;4.602;2023-07-20T00:19:22;7.30;;;4.83;;
14698;SDS011;7439;50.804;4.602;2023-07-20T00:21:49;5.97;;;4.03;;
14698;SDS011;7439;50.804;4.602;2023-07-20T00:24:16;4.80;;;3.73;;
14698;SDS011;7439;50.804;4.602;2023-07-20T00:26:45;7.33;;;4.13;;
14698;SDS011;7439;50.804;4.602;2023-07-20T00:29:12;7.17;;;4.30;;
14698;SDS011;7439;50.804;4.602;2023-07-20T00:31:39;6.43;;;3.60;;
14698;SDS011;7439;50.804;4.602;2023-07-20T00:34:07;4.00;;;3.60;;
14698;SDS011;7439;50.804;4.602;2023-07-20T00:36:34;5.57;;;3.73;;
14698;SDS011;7439;50.804;4.602;2023-07-20T00:39:01;8.30;;;4.17;;
14698;SDS011;7439;50.804;4.602;2023-07-20T00:41:29;7.70;;;3.80;;
14698;SDS011;7439;50.804;4.602;2023-07-20T00:43:58;7.07;;;4.00;;
14698;SDS011;7439;50.804;4.602;2023-07-20T00:46:25;5.80;;;4.20;;
14698;SDS011;7439;50.804;4.602;2023-07-20T00:48:53;4.53;;;3.37;;
14698;SDS011;7439;50.804;4.602;2023-07-20T00:51:21;7.03;;;3.97;;
14698;SDS011;7439;50.804;4.602;2023-07-20T00:53:49;6.90;;;4.00;;
14698;SDS011;7439;50.804;4.602;2023-07-20T00:56:16;6.23;;;3.83;;
14698;SDS011;7439;50.804;4.602;2023-07-20T00:58:44;4.53;;;3.50;;
14698;SDS011;7439;50.804;4.602;2023-07-20T01:01:12;5.10;;;3.50;;
14698;SDS011;7439;50.804;4.602;2023-07-20T01:03:40;6.30;;;3.73;;
14698;SDS011;7439;50.804;4.602;2023-07-20T01:06:09;4.20;;;3.53;;
14698;SDS011;7439;50.804;4.602;2023-07-20T01:09:01;7.47;;;4.00;;
14698;SDS011;7439;50.804;4.602;2023-07-20T01:11:35;5.10;;;3.67;;
14698;SDS011;7439;50.804;4.602;2023-07-20T01:14:05;7.83;;;3.73;;
14698;SDS011;7439;50.804;4.602;2023-07-20T01:16:34;4.80;;;3.67;;
14698;SDS011;7439;50.804;4.602;2023-07-20T01:19:01;4.33;;;3.73;;
14698;SDS011;7439;50.804;4.602;2023-07-20T01:21:31;8.43;;;4.43;;
14698;SDS011;7439;50.804;4.602;2023-07-20T01:30:14;4.57;;;3.13;;
14698;SDS011;7439;50.804;4.602;2023-07-20T01:32:54;4.13;;;3.57;;
14698;SDS011;7439;50.804;4.602;2023-07-20T01:35:23;6.77;;;3.87;;
14698;SDS011;7439;50.804;4.602;2023-07-20T01:37:55;4.43;;;3.63;;
14698;SDS011;7439;50.804;4.602;2023-07-20T01:40:24;6.03;;;4.20;;
14698;SDS011;7439;50.804;4.602;2023-07-20T01:42:52;6.13;;;3.33;;
14698;SDS011;7439;50.804;4.602;2023-07-20T01:45:20;4.77;;;3.43;;
14698;SDS011;7439;50.804;4.602;2023-07-20T01:47:47;7.87;;;3.93;;
14698;SDS011;7439;50.804;4.602;2023-07-20T01:50:15;7.20;;;3.90;;
14698;SDS011;7439;50.804;4.602;2023-07-20T01:52:45;8.90;;;4.20;;
14698;SDS011;7439;50.804;4.602;2023-07-20T01:55:15;7.93;;;4.20;;
14698;SDS011;7439;50.804;4.602;2023-07-20T01:57:42;6.20;;;3.67;;
14698;SDS011;7439;50.804;4.602;2023-07-20T02:00:10;4.90;;;4.07;;
14698;SDS011;7439;50.804;4.602;2023-07-20T02:02:38;7.00;;;3.83;;
14698;SDS011;7439;50.804;4.602;2023-07-20T02:05:05;7.67;;;4.20;;
14698;SDS011;7439;50.804;4.602;2023-07-20T02:07:34;6.73;;;4.30;;
14698;SDS011;7439;50.804;4.602;2023-07-20T02:10:01;9.20;;;4.70;;
14698;SDS011;7439;50.804;4.602;2023-07-20T02:12:29;5.57;;;4.73;;
14698;SDS011;7439;50.804;4.602;2023-07-20T02:14:56;11.27;;;5.00;;
14698;SDS011;7439;50.804;4.602;2023-07-20T02:17:23;5.13;;;4.57;;
14698;SDS011;7439;50.804;4.602;2023-07-20T02:19:52;7.70;;;4.87;;
14698;SDS011;7439;50.804;4.602;2023-07-20T02:22:20;9.57;;;4.63;;
14698;SDS011;7439;50.804;4.602;2023-07-20T02:24:48;8.80;;;4.27;;
14698;SDS011;7439;50.804;4.602;2023-07-20T02:27:16;8.17;;;4.43;;
14698;SDS011;7439;50.804;4.602;2023-07-20T02:29:43;7.03;;;4.20;;
14698;SDS011;7439;50.804;4.602;2023-07-20T02:32:10;5.43;;;4.17;;
14698;SDS011;7439;50.804;4.602;2023-07-20T02:34:37;6.13;;;4.20;;
14698;SDS011;7439;50.804;4.602;2023-07-20T02:37:04;8.77;;;4.87;;
14698;SDS011;7439;50.804;4.602;2023-07-20T02:39:32;9.53;;;4.43;;
14698;SDS011;7439;50.804;4.602;2023-07-20T02:42:00;5.07;;;4.40;;
14698;SDS011;7439;50.804;4.602;2023-07-20T02:44:27;9.40;;;4.57;;
14698;SDS011;7439;50.804;4.602;2023-07-20T02:46:59;7.93;;;4.53;;
14698;SDS011;7439;50.804;4.602;2023-07-20T02:49:27;7.03;;;4.90;;
14698;SDS011;7439;50.804;4.602;2023-07-20T02:51:54;6.90;;;4.30;;
14698;SDS011;7439;50.804;4.602;2023-07-20T02:54:22;4.83;;;3.80;;
14698;SDS011;7439;50.804;4.602;2023-07-20T02:56:49;11.83;;;4.90;;
14698;SDS011;7439;50.804;4.602;2023-07-20T02:59:17;6.97;;;4.27;;
14698;SDS011;7439;50.804;4.602;2023-07-20T03:01:45;7.60;;;4.37;;
14698;SDS011;7439;50.804;4.602;2023-07-20T03:04:12;8.83;;;4.67;;
14698;SDS011;7439;50.804;4.602;2023-07-20T03:06:39;6.57;;;4.57;;
14698;SDS011;7439;50.804;4.602;2023-07-20T03:09:06;9.07;;;4.60;;
14698;SDS011;7439;50.804;4.602;2023-07-20T03:11:34;8.93;;;5.13;;
14698;SDS011;7439;50.804;4.602;2023-07-20T03:14:01;6.00;;;3.97;;
14698;SDS011;7439;50.804;4.602;2023-07-20T03:16:30;7.23;;;4.57;;
14698;SDS011;7439;50.804;4.602;2023-07-20T03:18:58;6.90;;;4.77;;
14698;SDS011;7439;50.804;4.602;2023-07-20T03:21:26;8.03;;;4.57;;
14698;SDS011;7439;50.804;4.602;2023-07-20T03:23:53;11.63;;;4.60;;
14698;SDS011;7439;50.804;4.602;2023-07-20T03:26:20;6.13;;;4.40;;
14698;SDS011;7439;50.804;4.602;2023-07-20T03:28:47;6.77;;;4.80;;
14698;SDS011;7439;50.804;4.602;2023-07-20T03:31:15;11.07;;;4.93;;
14698;SDS011;7439;50.804;4.602;2023-07-20T03:33:43;9.27;;;5.67;;
14698;SDS011;7439;50.804;4.602;2023-07-20T03:36:10;8.20;;;5.30;;
14698;SDS011;7439;50.804;4.602;2023-07-20T03:38:38;11.37;;;6.00;;
14698;SDS011;7439;50.804;4.602;2023-07-20T03:41:05;11.93;;;5.70;;
14698;SDS011;7439;50.804;4.602;2023-07-20T03:43:32;8.73;;;5.80;;
14698;SDS011;7439;50.804;4.602;2023-07-20T03:45:59;6.10;;;5.20;;
14698;SDS011;7439;50.804;4.602;2023-07-20T03:48:31;7.97;;;5.17;;
14698;SDS011;7439;50.804;4.602;2023-07-20T03:51:00;10.83;;;5.23;;
14698;SDS011;7439;50.804;4.602;2023-07-20T03:53:28;12.37;;;7.23;;
14698;SDS011;7439;50.804;4.602;2023-07-20T03:55:55;8.50;;;6.57;;
14698;SDS011;7439;50.804;4.602;2023-07-20T03:58:22;10.47;;;6.70;;
14698;SDS011;7439;50.804;4.602;2023-07-20T04:00:50;8.57;;;6.63;;
14698;SDS011;7439;50.804;4.602;2023-07-20T04:03:19;8.37;;;5.90;;
14698;SDS011;7439;50.804;4.602;2023-07-20T04:05:48;12.37;;;6.07;;
14698;SDS011;7439;50.804;4.602;2023-07-20T04:08:16;12.73;;;6.47;;
14698;SDS011;7439;50.804;4.602;2023-07-20T04:10:44;10.20;;;5.87;;
14698;SDS011;7439;50.804;4.602;2023-07-20T04:13:11;13.23;;;6.13;;
14698;SDS011;7439;50.804;4.602;2023-07-20T04:15:38;10.57;;;5.87;;
14698;SDS011;7439;50.804;4.602;2023-07-20T04:18:05;12.07;;;6.53;;
14698;SDS011;7439;50.804;4.602;2023-07-20T04:20:33;9.27;;;6.07;;
14698;SDS011;7439;50.804;4.602;2023-07-20T04:23:00;9.67;;;5.67;;
14698;SDS011;7439;50.804;4.602;2023-07-20T04:25:29;11.63;;;5.93;;
14698;SDS011;7439;50.804;4.602;2023-07-20T04:28:04;10.70;;;6.07;;
14698;SDS011;7439;50.804;4.602;2023-07-20T04:30:34;9.70;;;6.23;;
14698;SDS011;7439;50.804;4.602;2023-07-20T04:33:01;9.60;;;6.73;;
14698;SDS011;7439;50.804;4.602;2023-07-20T04:35:47;7.03;;;5.70;;
14698;SDS011;7439;50.804;4.602;2023-07-20T04:38:16;12.27;;;7.07;;
14698;SDS011;7439;50.804;4.602;2023-07-20T04:40:45;9.00;;;6.33;;
14698;SDS011;7439;50.804;4.602;2023-07-20T04:43:15;8.20;;;5.70;;
14698;SDS011;7439;50.804;4.602;2023-07-20T04:45:43;11.57;;;6.10;;
14698;SDS011;7439;50.804;4.602;2023-07-20T04:48:11;7.90;;;5.40;;
14698;SDS011;7439;50.804;4.602;2023-07-20T04:50:40;6.80;;;5.27;;
14698;SDS011;7439;50.804;4.602;2023-07-20T04:53:08;8.63;;;5.77;;
14698;SDS011;7439;50.804;4.602;2023-07-20T04:55:36;12.27;;;5.50;;
14698;SDS011;7439;50.804;4.602;2023-07-20T04:58:04;6.20;;;4.93;;
14698;SDS011;7439;50.804;4.602;2023-07-20T05:00:33;8.60;;;5.37;;
14698;SDS011;7439;50.804;4.602;2023-07-20T05:03:00;10.00;;;5.87;;
14698;SDS011;7439;50.804;4.602;2023-07-20T05:05:30;6.40;;;5.80;;
14698;SDS011;7439;50.804;4.602;2023-07-20T05:07:57;12.90;;;6.77;;
14698;SDS011;7439;50.804;4.602;2023-07-20T05:10:24;6.57;;;5.80;;
14698;SDS011;7439;50.804;4.602;2023-07-20T05:12:51;9.23;;;5.43;;
14698;SDS011;7439;50.804;4.602;2023-07-20T05:15:20;10.20;;;6.40;;
14698;SDS011;7439;50.804;4.602;2023-07-20T05:17:47;8.87;;;6.23;;
14698;SDS011;7439;50.804;4.602;2023-07-20T05:20:15;9.70;;;6.70;;
14698;SDS011;7439;50.804;4.602;2023-07-20T05:22:42;7.23;;;6.43;;
14698;SDS011;7439;50.804;4.602;2023-07-20T05:25:10;11.03;;;6.97;;
14698;SDS011;7439;50.804;4.602;2023-07-20T05:27:38;9.67;;;7.33;;
14698;SDS011;7439;50.804;4.602;2023-07-20T05:30:06;15.10;;;8.07;;
14698;SDS011;7439;50.804;4.602;2023-07-20T05:32:35;17.33;;;8.53;;
14698;SDS011;7439;50.804;4.602;2023-07-20T05:35:02;13.27;;;7.70;;
14698;SDS011;7439;50.804;4.602;2023-07-20T05:37:30;14.87;;;7.43;;
14698;SDS011;7439;50.804;4.602;2023-07-20T05:39:57;12.70;;;8.13;;
14698;SDS011;7439;50.804;4.602;2023-07-20T05:42:24;11.73;;;8.43;;
14698;SDS011;7439;50.804;4.602;2023-07-20T05:44:52;10.57;;;8.20;;
14698;SDS011;7439;50.804;4.602;2023-07-20T05:47:20;15.97;;;9.77;;
14698;SDS011;7439;50.804;4.602;2023-07-20T05:49:48;13.70;;;9.50;;
14698;SDS011;7439;50.804;4.602;2023-07-20T05:52:16;14.30;;;10.33;;
14698;SDS011;7439;50.804;4.602;2023-07-20T05:54:43;16.57;;;10.50;;
14698;SDS011;7439;50.804;4.602;2023-07-20T05:57:10;18.47;;;9.83;;
14698;SDS011;7439;50.804;4.602;2023-07-20T05:59:37;12.53;;;9.07;;
14698;SDS011;7439;50.804;4.602;2023-07-20T06:02:05;13.57;;;9.67;;
14698;SDS011;7439;50.804;4.602;2023-07-20T06:04:33;14.13;;;9.40;;
14698;SDS011;7439;50.804;4.602;2023-07-20T06:07:01;13.83;;;10.77;;
14698;SDS011;7439;50.804;4.602;2023-07-20T06:09:29;12.33;;;10.33;;
14698;SDS011;7439;50.804;4.602;2023-07-20T06:11:56;16.20;;;10.27;;
14698;SDS011;7439;50.804;4.602;2023-07-20T06:14:23;17.43;;;10.63;;
14698;SDS011;7439;50.804;4.602;2023-07-20T06:16:51;18.27;;;11.23;;
14698;SDS011;7439;50.804;4.602;2023-07-20T06:19:18;15.87;;;11.10;;
14698;SDS011;7439;50.804;4.602;2023-07-20T06:21:45;13.67;;;11.13;;
14698;SDS011;7439;50.804;4.602;2023-07-20T06:24:13;19.67;;;10.90;;
14698;SDS011;7439;50.804;4.602;2023-07-20T06:26:40;14.77;;;9.87;;
14698;SDS011;7439;50.804;4.602;2023-07-20T06:29:08;17.47;;;9.80;;
14698;SDS011;7439;50.804;4.602;2023-07-20T06:31:35;18.33;;;11.73;;
14698;SDS011;7439;50.804;4.602;2023-07-20T06:34:03;16.47;;;11.07;;
14698;SDS011;7439;50.804;4.602;2023-07-20T06:36:30;13.63;;;10.37;;
14698;SDS011;7439;50.804;4.602;2023-07-20T06:38:57;12.57;;;10.23;;
14698;SDS011;7439;50.804;4.602;2023-07-20T06:41:25;14.43;;;9.77;;
14698;SDS011;7439;50.804;4.602;2023-07-20T06:43:52;14.10;;;9.57;;
14698;SDS011;7439;50.804;4.602;2023-07-20T06:46:23;11.70;;;8.47;;
14698;SDS011;7439;50.804;4.602;2023-07-20T06:48:51;10.33;;;9.23;;
14698;SDS011;7439;50.804;4.602;2023-07-20T06:51:18;9.30;;;8.40;;
14698;SDS011;7439;50.804;4.602;2023-07-20T06:53:45;10.07;;;8.53;;
14698;SDS011;7439;50.804;4.602;2023-07-20T06:56:12;12.87;;;10.03;;
14698;SDS011;7439;50.804;4.602;2023-07-20T06:58:41;12.40;;;10.57;;
14698;SDS011;7439;50.804;4.602;2023-07-20T07:01:08;12.27;;;10.10;;
14698;SDS011;7439;50.804;4.602;2023-07-20T07:03:36;13.43;;;9.30;;
14698;SDS011;7439;50.804;4.602;2023-07-20T07:06:03;10.37;;;8.30;;
14698;SDS011;7439;50.804;4.602;2023-07-20T07:08:30;10.33;;;7.60;;
14698;SDS011;7439;50.804;4.602;2023-07-20T07:10:57;11.17;;;8.23;;
14698;SDS011;7439;50.804;4.602;2023-07-20T07:13:24;12.40;;;8.57;;
14698;SDS011;7439;50.804;4.602;2023-07-20T07:15:53;9.67;;;8.30;;
14698;SDS011;7439;50.804;4.602;2023-07-20T07:18:20;8.50;;;7.63;;
14698;SDS011;7439;50.804;4.602;2023-07-20T07:20:50;9.43;;;7.33;;
14698;SDS011;7439;50.804;4.602;2023-07-20T07:23:18;8.87;;;8.03;;
14698;SDS011;7439;50.804;4.602;2023-07-20T07:25:45;8.50;;;7.23;;
14698;SDS011;7439;50.804;4.602;2023-07-20T07:28:13;7.77;;;6.97;;
14698;SDS011;7439;50.804;4.602;2023-07-20T07:30:40;10.10;;;7.23;;
14698;SDS011;7439;50.804;4.602;2023-07-20T07:33:09;9.27;;;7.37;;
14698;SDS011;7439;50.804;4.602;2023-07-20T07:35:36;8.57;;;6.47;;
14698;SDS011;7439;50.804;4.602;2023-07-20T07:38:03;6.93;;;6.23;;
14698;SDS011;7439;50.804;4.602;2023-07-20T07:40:31;6.13;;;5.57;;
14698;SDS011;7439;50.804;4.602;2023-07-20T07:42:58;4.87;;;4.30;;
14698;SDS011;7439;50.804;4.602;2023-07-20T07:45:27;5.17;;;3.97;;
14698;SDS011;7439;50.804;4.602;2023-07-20T07:47:54;4.73;;;4.03;;
14698;SDS011;7439;50.804;4.602;2023-07-20T07:50:22;5.30;;;3.80;;
14698;SDS011;7439;50.804;4.602;2023-07-20T07:52:50;4.40;;;4.00;;
14698;SDS011;7439;50.804;4.602;2023-07-20T07:55:17;4.27;;;3.90;;
14698;SDS011;7439;50.804;4.602;2023-07-20T07:57:44;4.00;;;3.23;;
14698;SDS011;7439;50.804;4.602;2023-07-20T08:00:13;3.87;;;3.23;;
14698;SDS011;7439;50.804;4.602;2023-07-20T08:02:44;3.33;;;2.83;;
14698;SDS011;7439;50.804;4.602;2023-07-20T08:05:12;3.83;;;3.00;;
14698;SDS011;7439;50.804;4.602;2023-07-20T08:07:40;3.70;;;3.10;;
14698;SDS011;7439;50.804;4.602;2023-07-20T08:10:08;4.60;;;3.30;;
14698;SDS011;7439;50.804;4.602;2023-07-20T08:12:35;2.77;;;2.57;;
14698;SDS011;7439;50.804;4.602;2023-07-20T08:15:03;2.40;;;2.20;;
14698;SDS011;7439;50.804;4.602;2023-07-20T08:17:30;3.87;;;3.20;;
14698;SDS011;7439;50.804;4.602;2023-07-20T08:19:57;3.57;;;2.83;;
14698;SDS011;7439;50.804;4.602;2023-07-20T08:22:25;7.17;;;2.80;;
14698;SDS011;7439;50.804;4.602;2023-07-20T08:24:53;3.77;;;3.00;;
14698;SDS011;7439;50.804;4.602;2023-07-20T08:27:21;2.63;;;2.40;;
14698;SDS011;7439;50.804;4.602;2023-07-20T08:29:48;3.37;;;2.40;;
14698;SDS011;7439;50.804;4.602;2023-07-20T08:32:15;3.70;;;2.17;;
14698;SDS011;7439;50.804;4.602;2023-07-20T08:34:42;2.47;;;1.80;;
14698;SDS011;7439;50.804;4.602;2023-07-20T08:37:09;4.13;;;1.80;;
14698;SDS011;7439;50.804;4.602;2023-07-20T08:39:36;2.10;;;1.90;;
14698;SDS011;7439;50.804;4.602;2023-07-20T08:42:05;2.23;;;1.97;;
14698;SDS011;7439;50.804;4.602;2023-07-20T08:44:33;2.00;;;1.90;;
14698;SDS011;7439;50.804;4.602;2023-07-20T08:47:02;3.60;;;2.07;;
14698;SDS011;7439;50.804;4.602;2023-07-20T08:49:31;2.73;;;2.53;;
14698;SDS011;7439;50.804;4.602;2023-07-20T08:51:58;2.30;;;2.10;;
14698;SDS011;7439;50.804;4.602;2023-07-20T08:54:27;2.10;;;1.90;;
14698;SDS011;7439;50.804;4.602;2023-07-20T08:56:58;2.40;;;2.20;;
14698;SDS011;7439;50.804;4.602;2023-07-20T08:59:29;2.57;;;2.00;;
14698;SDS011;7439;50.804;4.602;2023-07-20T09:01:58;2.60;;;2.00;;
14698;SDS011;7439;50.804;4.602;2023-07-20T09:04:26;3.53;;;1.63;;
14698;SDS011;7439;50.804;4.602;2023-07-20T09:06:53;1.60;;;1.50;;
14698;SDS011;7439;50.804;4.602;2023-07-20T09:09:21;1.90;;;1.70;;
14698;SDS011;7439;50.804;4.602;2023-07-20T09:11:48;2.17;;;1.57;;
14698;SDS011;7439;50.804;4.602;2023-07-20T09:14:16;1.57;;;1.47;;
14698;SDS011;7439;50.804;4.602;2023-07-20T09:16:48;2.27;;;1.60;;
14698;SDS011;7439;50.804;4.602;2023-07-20T09:19:16;2.50;;;1.87;;
14698;SDS011;7439;50.804;4.602;2023-07-20T09:21:44;1.70;;;1.60;;
14698;SDS011;7439;50.804;4.602;2023-07-20T09:24:12;2.30;;;2.00;;
14698;SDS011;7439;50.804;4.602;2023-07-20T09:26:40;1.97;;;1.87;;
14698;SDS011;7439;50.804;4.602;2023-07-20T09:29:08;3.30;;;1.90;;
14698;SDS011;7439;50.804;4.602;2023-07-20T09:31:36;2.10;;;2.00;;
14698;SDS011;7439;50.804;4.602;2023-07-20T09:34:05;4.10;;;2.50;;
14698;SDS011;7439;50.804;4.602;2023-07-20T09:36:33;2.70;;;2.50;;
14698;SDS011;7439;50.804;4.602;2023-07-20T09:39:01;2.90;;;2.50;;
14698;SDS011;7439;50.804;4.602;2023-07-20T09:41:30;3.10;;;2.17;;
14698;SDS011;7439;50.804;4.602;2023-07-20T09:44:05;2.80;;;2.60;;
14698;SDS011;7439;50.804;4.602;2023-07-20T09:46:42;2.70;;;2.50;;
14698;SDS011;7439;50.804;4.602;2023-07-20T09:49:11;2.60;;;2.40;;
14698;SDS011;7439;50.804;4.602;2023-07-20T09:51:39;2.73;;;2.43;;
14698;SDS011;7439;50.804;4.602;2023-07-20T09:54:07;3.00;;;2.30;;
14698;SDS011;7439;50.804;4.602;2023-07-20T09:56:35;2.63;;;2.30;;
14698;SDS011;7439;50.804;4.602;2023-07-20T09:59:02;3.10;;;1.90;;
14698;SDS011;7439;50.804;4.602;2023-07-20T10:01:30;2.10;;;1.87;;
14698;SDS011;7439;50.804;4.602;2023-07-20T10:04:02;2.53;;;2.33;;
14698;SDS011;7439;50.804;4.602;2023-07-20T10:06:32;3.27;;;2.40;;
14698;SDS011;7439;50.804;4.602;2023-07-20T10:09:01;2.60;;;2.40;;
14698;SDS011;7439;50.804;4.602;2023-07-20T10:11:32;1.97;;;1.70;;
14698;SDS011;7439;50.804;4.602;2023-07-20T10:14:03;2.13;;;2.03;;
14698;SDS011;7439;50.804;4.602;2023-07-20T10:16:34;2.53;;;2.10;;
14698;SDS011;7439;50.804;4.602;2023-07-20T10:19:05;2.00;;;1.90;;
14698;SDS011;7439;50.804;4.602;2023-07-20T10:21:35;2.90;;;1.90;;
14698;SDS011;7439;50.804;4.602;2023-07-20T10:24:06;2.23;;;2.03;;
14698;SDS011;7439;50.804;4.602;2023-07-20T10:26:36;2.40;;;2.20;;
14698;SDS011;7439;50.804;4.602;2023-07-20T10:29:04;2.53;;;1.90;;
14698;SDS011;7439;50.804;4.602;2023-07-20T10:31:32;2.07;;;1.97;;
14698;SDS011;7439;50.804;4.602;2023-07-20T10:33:59;2.23;;;1.77;;
14698;SDS011;7439;50.804;4.602;2023-07-20T10:36:27;2.77;;;1.97;;
14698;SDS011;7439;50.804;4.602;2023-07-20T10:38:56;3.40;;;1.83;;
14698;SDS011;7439;50.804;4.602;2023-07-20T10:41:27;2.47;;;1.67;;
14698;SDS011;7439;50.804;4.602;2023-07-20T10:43:58;2.10;;;1.90;;
14698;SDS011;7439;50.804;4.602;2023-07-20T10:46:33;2.23;;;1.70;;
14698;SDS011;7439;50.804;4.602;2023-07-20T10:49:02;1.93;;;1.83;;
14698;SDS011;7439;50.804;4.602;2023-07-20T10:51:30;2.10;;;1.90;;
14698;SDS011;7439;50.804;4.602;2023-07-20T10:54:08;2.10;;;1.80;;
14698;SDS011;7439;50.804;4.602;2023-07-20T10:56:56;2.00;;;1.80;;
14698;SDS011;7439;50.804;4.602;2023-07-20T10:59:36;2.30;;;1.77;;
14698;SDS011;7439;50.804;4.602;2023-07-20T11:02:05;1.83;;;1.40;;
14698;SDS011;7439;50.804;4.602;2023-07-20T11:04:40;1.87;;;1.77;;
14698;SDS011;7439;50.804;4.602;2023-07-20T11:07:08;2.00;;;1.83;;
14698;SDS011;7439;50.804;4.602;2023-07-20T11:09:38;1.73;;;1.63;;
14698;SDS011;7439;50.804;4.602;2023-07-20T11:12:09;2.20;;;1.60;;
14698;SDS011;7439;50.804;4.602;2023-07-20T11:14:39;2.17;;;1.57;;
14698;SDS011;7439;50.804;4.602;2023-07-20T11:17:11;2.70;;;1.50;;
14698;SDS011;7439;50.804;4.602;2023-07-20T11:19:39;1.30;;;1.20;;
14698;SDS011;7439;50.804;4.602;2023-07-20T11:22:06;1.50;;;1.40;;
14698;SDS011;7439;50.804;4.602;2023-07-20T11:24:34;1.43;;;1.13;;
14698;SDS011;7439;50.804;4.602;2023-07-20T11:27:06;1.20;;;1.10;;
14698;SDS011;7439;50.804;4.602;2023-07-20T11:29:34;1.73;;;1.20;;
14698;SDS011;7439;50.804;4.602;2023-07-20T11:32:04;1.50;;;1.40;;
14698;SDS011;7439;50.804;4.602;2023-07-20T11:34:31;1.50;;;1.20;;
14698;SDS011;7439;50.804;4.602;2023-07-20T11:37:00;1.83;;;1.00;;
14698;SDS011;7439;50.804;4.602;2023-07-20T11:39:27;1.47;;;1.37;;
14698;SDS011;7439;50.804;4.602;2023-07-20T11:41:56;1.30;;;1.20;;
14698;SDS011;7439;50.804;4.602;2023-07-20T11:44:25;2.97;;;1.00;;
14698;SDS011;7439;50.804;4.602;2023-07-20T11:47:01;1.50;;;1.40;;
14698;SDS011;7439;50.804;4.602;2023-07-20T11:49:29;1.33;;;1.13;;
14698;SDS011;7439;50.804;4.602;2023-07-20T11:51:56;2.70;;;1.60;;
14698;SDS011;7439;50.804;4.602;2023-07-20T11:54:24;1.43;;;1.30;;
14698;SDS011;7439;50.804;4.602;2023-07-20T11:56:53;1.33;;;1.20;;
14698;SDS011;7439;50.804;4.602;2023-07-20T11:59:21;1.00;;;1.00;;
14698;SDS011;7439;50.804;4.602;2023-07-20T12:01:49;1.40;;;1.30;;
14698;SDS011;7439;50.804;4.602;2023-07-20T12:04:16;2.40;;;1.30;;
14698;SDS011;7439;50.804;4.602;2023-07-20T12:06:44;3.17;;;1.43;;
14698;SDS011;7439;50.804;4.602;2023-07-20T12:09:13;2.03;;;1.60;;
14698;SDS011;7439;50.804;4.602;2023-07-20T12:12:08;1.60;;;1.50;;
14698;SDS011;7439;50.804;4.602;2023-07-20T12:14:39;1.70;;;1.60;;
14698;SDS011;7439;50.804;4.602;2023-07-20T12:17:09;2.30;;;1.70;;
14698;SDS011;7439;50.804;4.602;2023-07-20T12:19:38;2.03;;;1.93;;
14698;SDS011;7439;50.804;4.602;2023-07-20T12:22:16;2.40;;;2.20;;
14698;SDS011;7439;50.804;4.602;2023-07-20T12:24:43;2.10;;;2.00;;
14698;SDS011;7439;50.804;4.602;2023-07-20T12:27:12;1.97;;;1.87;;
14698;SDS011;7439;50.804;4.602;2023-07-20T12:29:41;1.83;;;1.63;;
14698;SDS011;7439;50.804;4.602;2023-07-20T12:32:10;2.10;;;2.00;;
14698;SDS011;7439;50.804;4.602;2023-07-20T12:34:37;1.80;;;1.70;;
14698;SDS011;7439;50.804;4.602;2023-07-20T12:37:04;1.80;;;1.70;;
14698;SDS011;7439;50.804;4.602;2023-07-20T12:39:31;2.00;;;1.90;;
14698;SDS011;7439;50.804;4.602;2023-07-20T12:41:59;1.80;;;1.70;;
14698;SDS011;7439;50.804;4.602;2023-07-20T12:44:26;1.60;;;1.50;;
14698;SDS011;7439;50.804;4.602;2023-07-20T12:46:53;2.00;;;1.90;;
14698;SDS011;7439;50.804;4.602;2023-07-20T12:49:23;2.77;;;1.60;;
14698;SDS011;7439;50.804;4.602;2023-07-20T12:51:50;1.63;;;1.50;;
14698;SDS011;7439;50.804;4.602;2023-07-20T12:54:17;2.80;;;1.50;;
14698;SDS011;7439;50.804;4.602;2023-07-20T12:56:44;2.23;;;1.70;;
14698;SDS011;7439;50.804;4.602;2023-07-20T12:59:11;1.40;;;1.30;;
14698;SDS011;7439;50.804;4.602;2023-07-20T13:01:38;1.00;;;1.00;;
14698;SDS011;7439;50.804;4.602;2023-07-20T13:04:06;1.43;;;1.30;;
14698;SDS011;7439;50.804;4.602;2023-07-20T13:06:36;2.60;;;1.53;;
14698;SDS011;7439;50.804;4.602;2023-07-20T13:09:03;2.20;;;1.50;;
14698;SDS011;7439;50.804;4.602;2023-07-20T13:11:31;1.77;;;1.60;;
14698;SDS011;7439;50.804;4.602;2023-07-20T13:13:58;1.50;;;1.40;;
14698;SDS011;7439;50.804;4.602;2023-07-20T13:16:25;1.53;;;1.43;;
14698;SDS011;7439;50.804;4.602;2023-07-20T13:18:52;1.73;;;1.60;;
14698;SDS011;7439;50.804;4.602;2023-07-20T13:21:20;1.77;;;1.60;;
14698;SDS011;7439;50.804;4.602;2023-07-20T13:23:49;1.50;;;1.40;;
14698;SDS011;7439;50.804;4.602;2023-07-20T13:26:16;2.03;;;1.60;;
14698;SDS011;7439;50.804;4.602;2023-07-20T13:28:43;4.77;;;1.97;;
14698;SDS011;7439;50.804;4.602;2023-07-20T13:31:10;2.60;;;1.70;;
14698;SDS011;7439;50.804;4.602;2023-07-20T13:33:37;1.60;;;1.50;;
14698;SDS011;7439;50.804;4.602;2023-07-20T13:36:05;2.00;;;1.80;;
14698;SDS011;7439;50.804;4.602;2023-07-20T13:38:32;1.73;;;1.63;;
14698;SDS011;7439;50.804;4.602;2023-07-20T13:41:00;1.50;;;1.40;;
14698;SDS011;7439;50.804;4.602;2023-07-20T13:43:27;2.37;;;1.60;;
14698;SDS011;7439;50.804;4.602;2023-07-20T13:45:54;1.70;;;1.60;;
14698;SDS011;7439;50.804;4.602;2023-07-20T13:48:22;1.70;;;1.60;;
14698;SDS011;7439;50.804;4.602;2023-07-20T13:50:49;1.67;;;1.57;;
14698;SDS011;7439;50.804;4.602;2023-07-20T13:53:16;1.70;;;1.60;;
14698;SDS011;7439;50.804;4.602;2023-07-20T13:55:43;1.80;;;1.70;;
14698;SDS011;7439;50.804;4.602;2023-07-20T13:58:12;1.77;;;1.63;;
14698;SDS011;7439;50.804;4.602;2023-07-20T14:00:39;2.00;;;1.63;;
14698;SDS011;7439;50.804;4.602;2023-07-20T14:03:06;1.77;;;1.60;;
14698;SDS011;7439;50.804;4.602;2023-07-20T14:05:34;2.73;;;1.60;;
14698;SDS011;7439;50.804;4.602;2023-07-20T14:08:01;3.00;;;1.87;;
14698;SDS011;7439;50.804;4.602;2023-07-20T14:10:28;3.37;;;2.03;;
14698;SDS011;7439;50.804;4.602;2023-07-20T14:12:55;3.40;;;2.03;;
14698;SDS011;7439;50.804;4.602;2023-07-20T14:15:24;3.77;;;2.20;;
14698;SDS011;7439;50.804;4.602;2023-07-20T14:17:51;2.63;;;1.90;;
14698;SDS011;7439;50.804;4.602;2023-07-20T14:20:18;3.97;;;2.27;;
14698;SDS011;7439;50.804;4.602;2023-07-20T14:22:46;2.33;;;1.80;;
14698;SDS011;7439;50.804;4.602;2023-07-20T14:25:13;2.40;;;1.87;;
14698;SDS011;7439;50.804;4.602;2023-07-20T14:27:40;1.93;;;1.73;;
14698;SDS011;7439;50.804;4.602;2023-07-20T14:30:07;2.10;;;1.90;;
14698;SDS011;7439;50.804;4.602;2023-07-20T14:32:36;4.10;;;2.07;;
14698;SDS011;7439;50.804;4.602;2023-07-20T14:35:05;1.90;;;1.80;;
14698;SDS011;7439;50.804;4.602;2023-07-20T14:37:34;2.50;;;2.00;;
14698;SDS011;7439;50.804;4.602;2023-07-20T14:40:01;2.00;;;1.90;;
14698;SDS011;7439;50.804;4.602;2023-07-20T14:42:30;1.90;;;1.80;;
14698;SDS011;7439;50.804;4.602;2023-07-20T14:44:57;1.80;;;1.63;;
14698;SDS011;7439;50.804;4.602;2023-07-20T14:47:24;1.57;;;1.47;;
14698;SDS011;7439;50.804;4.602;2023-07-20T14:49:53;1.90;;;1.53;;
14698;SDS011;7439;50.804;4.602;2023-07-20T14:52:20;1.50;;;1.40;;
14698;SDS011;7439;50.804;4.602;2023-07-20T14:54:47;1.93;;;1.70;;
14698;SDS011;7439;50.804;4.602;2023-07-20T14:57:14;2.80;;;2.00;;
14698;SDS011;7439;50.804;4.602;2023-07-20T14:59:42;1.93;;;1.80;;
14698;SDS011;7439;50.804;4.602;2023-07-20T15:02:09;2.67;;;2.00;;
14698;SDS011;7439;50.804;4.602;2023-07-20T15:04:36;2.33;;;1.80;;
14698;SDS011;7439;50.804;4.602;2023-07-20T15:07:12;2.00;;;1.90;;
14698;SDS011;7439;50.804;4.602;2023-07-20T15:09:39;2.17;;;1.70;;
14698;SDS011;7439;50.804;4.602;2023-07-20T15:12:07;2.60;;;1.97;;